sensor_id;sensor_type;location;lat;lon;timestamp;pressure;altitude;pressure_sealevel;temperature;humidity
10652;BME280;5374;42.742;23.266;2022-12-18T00:00:23;96199.81;;;6.80;100.00
10652;BME280;5374;42.742;23.266;2022-12-18T00:03:10;96215.66;;;6.80;100.00
10652;BME280;5374;42.742;23.266;2022-12-18T00:05:57;96209.22;;;6.70;100.00
10652;BME280;5374;42.742;23.266;2022-12-18T00:08:46;96229.50;;;6.69;100.00
10652;BME280;5374;42.742;23.266;2022-12-18T00:11:34;96228.50;;;6.70;100.00
10652;BME280;5374;42.742;23.266;2022-12-18T00:14:21;96235.59;;;6.70;100.00
10652;BME280;5374;42.742;23.266;2022-12-18T00:17:08;96231.34;;;6.69;100.00
10652;BME280;5374;42.742;23.266;2022-12-18T00:19:55;96247.16;;;6.69;100.00
10652;BME280;5374;42.742;23.266;2022-12-18T00:22:42;96254.06;;;6.63;100.00
10652;BME280;5374;42.742;23.266;2022-12-18T00:25:48;96233.38;;;6.47;100.00
10652;BME280;5374;42.742;23.266;2022-12-18T00:29:03;96235.81;;;6.42;100.00
10652;BME280;5374;42.742;23.266;2022-12-18T00:32:00;96253.06;;;6.44;100.00
10652;BME280;5374;42.742;23.266;2022-12-18T00:34:47;96264.22;;;6.40;100.00
10652;BME280;5374;42.742;23.266;2022-12-18T00:37:34;96261.19;;;6.43;100.00
10652;BME280;5374;42.742;23.266;2022-12-18T00:40:22;96254.69;;;6.39;100.00
10652;BME280;5374;42.742;23.266;2022-12-18T00:43:10;96263.22;;;6.41;100.00
10652;BME280;5374;42.742;23.266;2022-12-18T00:45:57;96261.19;;;6.36;100.00
10652;BME280;5374;42.742;23.266;2022-12-18T00:48:44;96271.13;;;6.41;100.00
10652;BME280;5374;42.742;23.266;2022-12-18T00:51:31;96271.34;;;6.46;100.00
10652;BME280;5374;42.742;23.266;2022-12-18T00:54:18;96277.00;;;6.43;100.00
10652;BME280;5374;42.742;23.266;2022-12-18T00:57:05;96279.47;;;6.44;100.00
10652;BME280;5374;42.742;23.266;2022-12-18T00:59:54;96280.66;;;6.29;100.00
10652;BME280;5374;42.742;23.266;2022-12-18T01:02:42;96281.06;;;6.26;100.00
10652;BME280;5374;42.742;23.266;2022-12-18T01:05:29;96275.38;;;6.22;100.00
10652;BME280;5374;42.742;23.266;2022-12-18T01:08:17;96281.28;;;6.31;100.00
10652;BME280;5374;42.742;23.266;2022-12-18T01:11:08;96257.50;;;5.98;100.00
10652;BME280;5374;42.742;23.266;2022-12-18T01:13:55;96291.63;;;6.26;100.00
10652;BME280;5374;42.742;23.266;2022-12-18T01:16:44;96290.19;;;6.16;100.00
10652;BME280;5374;42.742;23.266;2022-12-18T01:19:31;96287.94;;;6.20;100.00
10652;BME280;5374;42.742;23.266;2022-12-18T01:22:18;96295.22;;;6.11;100.00
10652;BME280;5374;42.742;23.266;2022-12-18T01:25:06;96299.91;;;6.16;100.00
10652;BME280;5374;42.742;23.266;2022-12-18T01:27:54;96302.97;;;6.06;100.00
10652;BME280;5374;42.742;23.266;2022-12-18T01:30:41;96295.63;;;5.95;100.00
10652;BME280;5374;42.742;23.266;2022-12-18T01:33:29;96295.19;;;5.92;100.00
10652;BME280;5374;42.742;23.266;2022-12-18T01:36:19;96313.84;;;5.90;100.00
10652;BME280;5374;42.742;23.266;2022-12-18T01:39:09;96310.16;;;5.84;100.00
10652;BME280;5374;42.742;23.266;2022-12-18T01:41:57;96313.03;;;5.90;100.00
10652;BME280;5374;42.742;23.266;2022-12-18T01:44:59;96317.88;;;5.86;100.00
10652;BME280;5374;42.742;23.266;2022-12-18T01:47:48;96325.97;;;5.84;100.00
10652;BME280;5374;42.742;23.266;2022-12-18T01:50:39;96317.88;;;5.86;100.00
10652;BME280;5374;42.742;23.266;2022-12-18T01:53:26;96318.47;;;5.88;100.00
10652;BME280;5374;42.742;23.266;2022-12-18T01:56:16;96327.97;;;5.76;100.00
10652;BME280;5374;42.742;23.266;2022-12-18T01:59:05;96329.44;;;5.85;100.00
10652;BME280;5374;42.742;23.266;2022-12-18T02:01:55;96328.59;;;5.78;100.00
10652;BME280;5374;42.742;23.266;2022-12-18T02:04:42;96323.28;;;5.71;100.00
10652;BME280;5374;42.742;23.266;2022-12-18T02:07:37;96330.19;;;5.72;100.00
10652;BME280;5374;42.742;23.266;2022-12-18T02:10:30;96324.28;;;5.70;100.00
10652;BME280;5374;42.742;23.266;2022-12-18T02:13:21;96326.53;;;5.73;100.00
10652;BME280;5374;42.742;23.266;2022-12-18T02:16:21;96337.94;;;5.80;100.00
10652;BME280;5374;42.742;23.266;2022-12-18T02:19:27;96339.47;;;5.68;100.00
10652;BME280;5374;42.742;23.266;2022-12-18T02:22:32;96343.94;;;5.68;100.00
10652;BME280;5374;42.742;23.266;2022-12-18T02:25:38;96338.84;;;5.60;100.00
10652;BME280;5374;42.742;23.266;2022-12-18T02:28:32;96357.91;;;5.62;100.00
10652;BME280;5374;42.742;23.266;2022-12-18T02:31:24;96352.47;;;5.63;100.00
10652;BME280;5374;42.742;23.266;2022-12-18T02:34:13;96359.13;;;5.59;100.00
10652;BME280;5374;42.742;23.266;2022-12-18T02:37:04;96368.03;;;5.58;100.00
10652;BME280;5374;42.742;23.266;2022-12-18T02:39:55;96343.03;;;5.41;100.00
10652;BME280;5374;42.742;23.266;2022-12-18T02:42:43;96363.53;;;5.52;100.00
10652;BME280;5374;42.742;23.266;2022-12-18T02:45:32;96368.38;;;5.48;100.00
10652;BME280;5374;42.742;23.266;2022-12-18T02:48:23;96370.38;;;5.46;100.00
10652;BME280;5374;42.742;23.266;2022-12-18T02:51:18;96379.22;;;5.32;100.00
10652;BME280;5374;42.742;23.266;2022-12-18T02:54:10;96380.22;;;5.31;100.00
10652;BME280;5374;42.742;23.266;2022-12-18T02:57:10;96377.16;;;5.28;100.00
10652;BME280;5374;42.742;23.266;2022-12-18T03:00:04;96369.03;;;5.23;100.00
10652;BME280;5374;42.742;23.266;2022-12-18T03:02:57;96375.91;;;5.24;100.00
10652;BME280;5374;42.742;23.266;2022-12-18T03:05:51;96382.78;;;5.18;100.00
10652;BME280;5374;42.742;23.266;2022-12-18T03:08:43;96375.28;;;5.15;100.00
10652;BME280;5374;42.742;23.266;2022-12-18T03:11:34;96377.94;;;5.22;100.00
10652;BME280;5374;42.742;23.266;2022-12-18T03:14:41;96358.56;;;5.01;100.00
10652;BME280;5374;42.742;23.266;2022-12-18T03:17:32;96355.84;;;4.88;100.00
10652;BME280;5374;42.742;23.266;2022-12-18T03:20:22;96387.56;;;5.08;100.00
10652;BME280;5374;42.742;23.266;2022-12-18T03:23:15;96396.53;;;5.13;100.00
10652;BME280;5374;42.742;23.266;2022-12-18T03:26:06;96396.78;;;5.19;100.00
10652;BME280;5374;42.742;23.266;2022-12-18T03:28:57;96389.44;;;5.14;100.00
10652;BME280;5374;42.742;23.266;2022-12-18T03:31:51;96401.16;;;5.11;100.00
10652;BME280;5374;42.742;23.266;2022-12-18T03:34:41;96388.94;;;5.04;100.00
10652;BME280;5374;42.742;23.266;2022-12-18T03:37:31;96413.75;;;5.16;100.00
10652;BME280;5374;42.742;23.266;2022-12-18T03:40:20;96407.56;;;5.02;100.00
10652;BME280;5374;42.742;23.266;2022-12-18T03:43:16;96421.03;;;5.14;100.00
10652;BME280;5374;42.742;23.266;2022-12-18T03:46:08;96424.88;;;5.11;100.00
10652;BME280;5374;42.742;23.266;2022-12-18T03:49:02;96433.38;;;5.13;100.00
10652;BME280;5374;42.742;23.266;2022-12-18T03:52:01;96441.47;;;5.12;100.00
10652;BME280;5374;42.742;23.266;2022-12-18T03:54:52;96441.66;;;5.10;100.00
10652;BME280;5374;42.742;23.266;2022-12-18T03:57:42;96433.94;;;5.09;100.00
10652;BME280;5374;42.742;23.266;2022-12-18T04:00:31;96439.34;;;5.01;100.00
10652;BME280;5374;42.742;23.266;2022-12-18T04:03:19;96430.97;;;4.91;100.00
10652;BME280;5374;42.742;23.266;2022-12-18T04:06:08;96444.13;;;4.91;100.00
10652;BME280;5374;42.742;23.266;2022-12-18T04:08:57;96445.63;;;4.78;100.00
10652;BME280;5374;42.742;23.266;2022-12-18T04:11:47;96406.97;;;4.58;100.00
10652;BME280;5374;42.742;23.266;2022-12-18T04:14:34;96442.69;;;4.67;100.00
10652;BME280;5374;42.742;23.266;2022-12-18T04:17:22;96429.66;;;4.59;100.00
10652;BME280;5374;42.742;23.266;2022-12-18T04:20:09;96462.03;;;4.80;100.00
10652;BME280;5374;42.742;23.266;2022-12-18T04:22:57;96463.47;;;4.83;100.00
10652;BME280;5374;42.742;23.266;2022-12-18T04:25:44;96448.81;;;4.53;100.00
10652;BME280;5374;42.742;23.266;2022-12-18T04:28:33;96474.13;;;4.75;100.00
10652;BME280;5374;42.742;23.266;2022-12-18T04:31:20;96481.78;;;4.70;100.00
10652;BME280;5374;42.742;23.266;2022-12-18T04:34:07;96480.78;;;4.71;100.00
10652;BME280;5374;42.742;23.266;2022-12-18T04:36:54;96492.69;;;4.67;100.00
10652;BME280;5374;42.742;23.266;2022-12-18T04:39:41;96479.63;;;4.59;100.00
10652;BME280;5374;42.742;23.266;2022-12-18T04:42:28;96474.44;;;4.65;100.00
10652;BME280;5374;42.742;23.266;2022-12-18T04:45:17;96493.13;;;4.70;100.00
10652;BME280;5374;42.742;23.266;2022-12-18T04:48:05;96506.50;;;4.75;100.00
10652;BME280;5374;42.742;23.266;2022-12-18T04:50:52;96500.25;;;4.76;100.00
10652;BME280;5374;42.742;23.266;2022-12-18T04:53:39;96489.50;;;4.71;100.00
10652;BME280;5374;42.742;23.266;2022-12-18T04:56:27;96513.34;;;4.70;100.00
10652;BME280;5374;42.742;23.266;2022-12-18T04:59:14;96521.69;;;4.73;100.00
10652;BME280;5374;42.742;23.266;2022-12-18T05:02:03;96521.25;;;4.70;100.00
10652;BME280;5374;42.742;23.266;2022-12-18T05:04:50;96493.59;;;4.59;100.00
10652;BME280;5374;42.742;23.266;2022-12-18T05:07:37;96505.00;;;4.66;100.00
10652;BME280;5374;42.742;23.266;2022-12-18T05:10:25;96519.44;;;4.70;100.00
10652;BME280;5374;42.742;23.266;2022-12-18T05:13:12;96527.88;;;4.66;100.00
10652;BME280;5374;42.742;23.266;2022-12-18T05:15:59;96540.22;;;4.65;100.00
10652;BME280;5374;42.742;23.266;2022-12-18T05:18:48;96540.47;;;4.70;100.00
10652;BME280;5374;42.742;23.266;2022-12-18T05:21:35;96529.97;;;4.56;100.00
10652;BME280;5374;42.742;23.266;2022-12-18T05:24:23;96554.38;;;4.64;100.00
10652;BME280;5374;42.742;23.266;2022-12-18T05:27:10;96556.63;;;4.67;100.00
10652;BME280;5374;42.742;23.266;2022-12-18T05:29:57;96563.34;;;4.70;100.00
10652;BME280;5374;42.742;23.266;2022-12-18T05:32:44;96564.16;;;4.70;100.00
10652;BME280;5374;42.742;23.266;2022-12-18T05:35:33;96566.16;;;4.68;100.00
10652;BME280;5374;42.742;23.266;2022-12-18T05:38:21;96576.31;;;4.71;100.00
10652;BME280;5374;42.742;23.266;2022-12-18T05:41:09;96567.25;;;4.74;100.00
10652;BME280;5374;42.742;23.266;2022-12-18T05:43:56;96569.88;;;4.74;100.00
10652;BME280;5374;42.742;23.266;2022-12-18T05:46:43;96579.75;;;4.72;100.00
10652;BME280;5374;42.742;23.266;2022-12-18T05:49:30;96580.31;;;4.67;100.00
10652;BME280;5374;42.742;23.266;2022-12-18T05:52:19;96583.66;;;4.61;100.00
10652;BME280;5374;42.742;23.266;2022-12-18T05:55:07;96587.56;;;4.65;100.00
10652;BME280;5374;42.742;23.266;2022-12-18T05:57:55;96594.81;;;4.63;100.00
10652;BME280;5374;42.742;23.266;2022-12-18T06:00:44;96602.97;;;4.68;100.00
10652;BME280;5374;42.742;23.266;2022-12-18T06:03:32;96611.06;;;4.67;100.00
10652;BME280;5374;42.742;23.266;2022-12-18T06:06:20;96613.16;;;4.71;100.00
10652;BME280;5374;42.742;23.266;2022-12-18T06:09:09;96624.03;;;4.68;100.00
10652;BME280;5374;42.742;23.266;2022-12-18T06:11:57;96621.75;;;4.65;100.00
10652;BME280;5374;42.742;23.266;2022-12-18T06:14:44;96594.22;;;4.46;100.00
10652;BME280;5374;42.742;23.266;2022-12-18T06:17:32;96607.06;;;4.56;100.00
10652;BME280;5374;42.742;23.266;2022-12-18T06:20:19;96629.28;;;4.68;100.00
10652;BME280;5374;42.742;23.266;2022-12-18T06:23:07;96633.91;;;4.66;100.00
10652;BME280;5374;42.742;23.266;2022-12-18T06:25:56;96641.34;;;4.63;100.00
10652;BME280;5374;42.742;23.266;2022-12-18T06:28:43;96632.72;;;4.54;100.00
10652;BME280;5374;42.742;23.266;2022-12-18T06:31:31;96641.91;;;4.58;100.00
10652;BME280;5374;42.742;23.266;2022-12-18T06:34:18;96635.94;;;4.50;100.00
10652;BME280;5374;42.742;23.266;2022-12-18T06:37:05;96631.66;;;4.49;100.00
10652;BME280;5374;42.742;23.266;2022-12-18T06:39:52;96616.34;;;4.37;100.00
10652;BME280;5374;42.742;23.266;2022-12-18T06:42:41;96633.47;;;4.48;100.00
10652;BME280;5374;42.742;23.266;2022-12-18T06:45:28;96641.56;;;4.46;100.00
10652;BME280;5374;42.742;23.266;2022-12-18T06:48:15;96654.97;;;4.52;100.00
10652;BME280;5374;42.742;23.266;2022-12-18T06:51:03;96653.16;;;4.37;100.00
10652;BME280;5374;42.742;23.266;2022-12-18T06:53:50;96660.31;;;4.43;100.00
10652;BME280;5374;42.742;23.266;2022-12-18T06:56:37;96661.78;;;4.46;100.00
10652;BME280;5374;42.742;23.266;2022-12-18T06:59:26;96662.22;;;4.50;100.00
10652;BME280;5374;42.742;23.266;2022-12-18T07:02:13;96663.66;;;4.52;100.00
10652;BME280;5374;42.742;23.266;2022-12-18T07:05:01;96648.53;;;4.39;100.00
10652;BME280;5374;42.742;23.266;2022-12-18T07:07:48;96670.75;;;4.52;100.00
10652;BME280;5374;42.742;23.266;2022-12-18T07:10:41;96676.03;;;4.52;100.00
10652;BME280;5374;42.742;23.266;2022-12-18T07:13:28;96670.56;;;4.53;100.00
10652;BME280;5374;42.742;23.266;2022-12-18T07:16:18;96679.91;;;4.41;100.00
10652;BME280;5374;42.742;23.266;2022-12-18T07:19:06;96688.53;;;4.50;100.00
10652;BME280;5374;42.742;23.266;2022-12-18T07:21:53;96685.72;;;4.51;100.00
10652;BME280;5374;42.742;23.266;2022-12-18T07:24:40;96684.97;;;4.57;100.00
10652;BME280;5374;42.742;23.266;2022-12-18T07:27:28;96669.03;;;4.44;100.00
10652;BME280;5374;42.742;23.266;2022-12-18T07:30:15;96693.16;;;4.62;100.00
10652;BME280;5374;42.742;23.266;2022-12-18T07:33:05;96689.69;;;4.62;100.00
10652;BME280;5374;42.742;23.266;2022-12-18T07:35:52;96703.84;;;4.61;100.00
10652;BME280;5374;42.742;23.266;2022-12-18T07:38:39;96702.13;;;4.68;100.00
10652;BME280;5374;42.742;23.266;2022-12-18T07:41:26;96700.41;;;4.60;100.00
10652;BME280;5374;42.742;23.266;2022-12-18T07:44:13;96707.22;;;4.69;100.00
10652;BME280;5374;42.742;23.266;2022-12-18T07:47:00;96699.50;;;4.68;100.00
10652;BME280;5374;42.742;23.266;2022-12-18T07:49:49;96707.31;;;4.61;100.00
10652;BME280;5374;42.742;23.266;2022-12-18T07:52:36;96708.28;;;4.60;100.00
10652;BME280;5374;42.742;23.266;2022-12-18T07:55:23;96709.13;;;4.61;100.00
10652;BME280;5374;42.742;23.266;2022-12-18T07:58:10;96720.44;;;4.76;100.00
10652;BME280;5374;42.742;23.266;2022-12-18T08:01:02;96725.81;;;4.82;100.00
10652;BME280;5374;42.742;23.266;2022-12-18T08:03:50;96723.00;;;4.84;100.00
10652;BME280;5374;42.742;23.266;2022-12-18T08:06:39;96729.34;;;4.90;100.00
10652;BME280;5374;42.742;23.266;2022-12-18T08:09:26;96727.19;;;4.93;100.00
10652;BME280;5374;42.742;23.266;2022-12-18T08:12:13;96722.47;;;4.74;100.00
10652;BME280;5374;42.742;23.266;2022-12-18T08:15:01;96719.28;;;4.78;100.00
10652;BME280;5374;42.742;23.266;2022-12-18T08:17:48;96738.78;;;4.84;100.00
10652;BME280;5374;42.742;23.266;2022-12-18T08:20:36;96742.88;;;4.87;100.00
10652;BME280;5374;42.742;23.266;2022-12-18T08:23:24;96749.50;;;4.82;100.00
10652;BME280;5374;42.742;23.266;2022-12-18T08:26:12;96753.13;;;4.81;100.00
10652;BME280;5374;42.742;23.266;2022-12-18T08:28:59;96761.00;;;4.81;100.00
10652;BME280;5374;42.742;23.266;2022-12-18T08:31:47;96761.47;;;4.85;100.00
10652;BME280;5374;42.742;23.266;2022-12-18T08:34:34;96760.47;;;4.86;100.00
10652;BME280;5374;42.742;23.266;2022-12-18T08:37:22;96761.47;;;4.85;100.00
10652;BME280;5374;42.742;23.266;2022-12-18T08:40:12;96749.22;;;4.77;100.00
10652;BME280;5374;42.742;23.266;2022-12-18T08:42:59;96744.31;;;4.74;100.00
10652;BME280;5374;42.742;23.266;2022-12-18T08:46:04;96736.88;;;4.63;100.00
10652;BME280;5374;42.742;23.266;2022-12-18T08:48:52;96765.84;;;4.93;100.00
10652;BME280;5374;42.742;23.266;2022-12-18T08:51:40;96750.78;;;4.87;100.00
10652;BME280;5374;42.742;23.266;2022-12-18T08:54:27;96765.75;;;4.86;100.00
10652;BME280;5374;42.742;23.266;2022-12-18T08:57:16;96764.91;;;4.86;100.00
10652;BME280;5374;42.742;23.266;2022-12-18T09:00:04;96756.22;;;4.85;100.00
10652;BME280;5374;42.742;23.266;2022-12-18T09:02:51;96773.09;;;5.05;100.00
10652;BME280;5374;42.742;23.266;2022-12-18T09:05:39;96765.56;;;5.17;100.00
10652;BME280;5374;42.742;23.266;2022-12-18T09:08:26;96765.81;;;5.22;100.00
10652;BME280;5374;42.742;23.266;2022-12-18T09:11:15;96765.63;;;5.24;100.00
10652;BME280;5374;42.742;23.266;2022-12-18T09:14:09;96767.72;;;5.28;100.00
10652;BME280;5374;42.742;23.266;2022-12-18T09:16:56;96775.16;;;5.39;100.00
10652;BME280;5374;42.742;23.266;2022-12-18T09:19:43;96769.72;;;5.41;100.00
10652;BME280;5374;42.742;23.266;2022-12-18T09:22:31;96771.41;;;5.48;100.00
10652;BME280;5374;42.742;23.266;2022-12-18T09:25:18;96768.03;;;5.55;100.00
10652;BME280;5374;42.742;23.266;2022-12-18T09:28:09;96765.50;;;5.46;100.00
10652;BME280;5374;42.742;23.266;2022-12-18T09:30:58;96765.94;;;5.65;100.00
10652;BME280;5374;42.742;23.266;2022-12-18T09:33:45;96747.66;;;5.42;100.00
10652;BME280;5374;42.742;23.266;2022-12-18T09:36:32;96767.69;;;5.58;100.00
10652;BME280;5374;42.742;23.266;2022-12-18T09:39:20;96769.31;;;5.59;100.00
10652;BME280;5374;42.742;23.266;2022-12-18T09:42:17;96770.19;;;5.66;100.00
10652;BME280;5374;42.742;23.266;2022-12-18T09:45:12;96765.81;;;5.73;100.00
10652;BME280;5374;42.742;23.266;2022-12-18T09:48:04;96770.41;;;5.86;100.00
10652;BME280;5374;42.742;23.266;2022-12-18T09:50:57;96751.91;;;5.79;100.00
10652;BME280;5374;42.742;23.266;2022-12-18T09:53:52;96761.25;;;5.81;100.00
10652;BME280;5374;42.742;23.266;2022-12-18T09:56:42;96779.50;;;5.83;100.00
10652;BME280;5374;42.742;23.266;2022-12-18T09:59:34;96771.59;;;5.83;100.00
10652;BME280;5374;42.742;23.266;2022-12-18T10:02:24;96751.94;;;5.64;100.00
10652;BME280;5374;42.742;23.266;2022-12-18T10:05:16;96754.63;;;5.71;100.00
10652;BME280;5374;42.742;23.266;2022-12-18T10:08:11;96756.59;;;5.83;100.00
10652;BME280;5374;42.742;23.266;2022-12-18T10:11:09;96724.16;;;5.62;100.00
10652;BME280;5374;42.742;23.266;2022-12-18T10:14:06;96755.69;;;5.91;100.00
10652;BME280;5374;42.742;23.266;2022-12-18T10:17:02;96758.09;;;6.07;100.00
10652;BME280;5374;42.742;23.266;2022-12-18T10:19:56;96746.41;;;6.16;100.00
10652;BME280;5374;42.742;23.266;2022-12-18T10:22:53;96759.44;;;6.46;100.00
10652;BME280;5374;42.742;23.266;2022-12-18T10:25:49;96739.84;;;6.34;100.00
10652;BME280;5374;42.742;23.266;2022-12-18T10:28:39;96756.16;;;6.44;100.00
10652;BME280;5374;42.742;23.266;2022-12-18T10:31:27;96758.13;;;6.63;100.00
10652;BME280;5374;42.742;23.266;2022-12-18T10:34:14;96770.19;;;6.72;100.00
10652;BME280;5374;42.742;23.266;2022-12-18T10:37:04;96747.06;;;6.74;100.00
10652;BME280;5374;42.742;23.266;2022-12-18T10:40:11;96763.22;;;6.93;100.00
10652;BME280;5374;42.742;23.266;2022-12-18T10:43:09;96762.22;;;6.94;100.00
10652;BME280;5374;42.742;23.266;2022-12-18T10:46:00;96761.59;;;6.92;100.00
10652;BME280;5374;42.742;23.266;2022-12-18T10:48:51;96763.84;;;6.95;100.00
10652;BME280;5374;42.742;23.266;2022-12-18T10:51:39;96758.94;;;6.92;100.00
10652;BME280;5374;42.742;23.266;2022-12-18T10:54:27;96759.19;;;6.97;100.00
10652;BME280;5374;42.742;23.266;2022-12-18T10:57:33;96759.91;;;6.84;100.00
10652;BME280;5374;42.742;23.266;2022-12-18T11:00:23;96749.88;;;6.73;100.00
10652;BME280;5374;42.742;23.266;2022-12-18T11:03:29;96760.72;;;6.84;100.00
10652;BME280;5374;42.742;23.266;2022-12-18T11:06:19;96761.59;;;6.92;100.00
10652;BME280;5374;42.742;23.266;2022-12-18T11:09:19;96762.34;;;6.85;100.00
10652;BME280;5374;42.742;23.266;2022-12-18T11:12:15;96748.69;;;6.75;100.00
10652;BME280;5374;42.742;23.266;2022-12-18T11:15:13;96744.38;;;6.68;100.00
10652;BME280;5374;42.742;23.266;2022-12-18T11:18:16;96752.56;;;6.79;100.00
10652;BME280;5374;42.742;23.266;2022-12-18T11:21:07;96754.09;;;6.67;100.00
10652;BME280;5374;42.742;23.266;2022-12-18T11:23:55;96763.53;;;6.76;100.00
10652;BME280;5374;42.742;23.266;2022-12-18T11:26:44;96761.91;;;6.82;100.00
10652;BME280;5374;42.742;23.266;2022-12-18T11:29:33;96765.63;;;6.88;100.00
10652;BME280;5374;42.742;23.266;2022-12-18T11:32:40;96766.34;;;6.75;100.00
10652;BME280;5374;42.742;23.266;2022-12-18T11:35:35;96773.41;;;6.68;100.00
10652;BME280;5374;42.742;23.266;2022-12-18T11:38:26;96762.09;;;6.74;100.00
10652;BME280;5374;42.742;23.266;2022-12-18T11:41:20;96762.28;;;6.79;100.00
10652;BME280;5374;42.742;23.266;2022-12-18T11:44:10;96766.34;;;6.75;100.00
10652;BME280;5374;42.742;23.266;2022-12-18T11:47:02;96750.03;;;6.65;100.00
10652;BME280;5374;42.742;23.266;2022-12-18T11:49:53;96759.63;;;6.72;100.00
10652;BME280;5374;42.742;23.266;2022-12-18T11:52:42;96748.19;;;6.65;100.00
10652;BME280;5374;42.742;23.266;2022-12-18T11:55:37;96749.13;;;6.51;100.00
10652;BME280;5374;42.742;23.266;2022-12-18T11:58:40;96759.53;;;6.59;100.00
10652;BME280;5374;42.742;23.266;2022-12-18T12:01:39;96755.25;;;6.58;100.00
10652;BME280;5374;42.742;23.266;2022-12-18T12:04:47;96758.91;;;6.57;100.00
10652;BME280;5374;42.742;23.266;2022-12-18T12:07:44;96758.06;;;6.57;100.00
10652;BME280;5374;42.742;23.266;2022-12-18T12:10:45;96752.47;;;6.66;100.00
10652;BME280;5374;42.742;23.266;2022-12-18T12:13:44;96749.16;;;6.58;100.00
10652;BME280;5374;42.742;23.266;2022-12-18T12:16:41;96761.16;;;6.60;100.00
10652;BME280;5374;42.742;23.266;2022-12-18T12:19:41;96745.88;;;6.56;100.00
10652;BME280;5374;42.742;23.266;2022-12-18T12:22:37;96747.34;;;6.58;100.00
10652;BME280;5374;42.742;23.266;2022-12-18T12:25:35;96764.22;;;6.64;100.00
10652;BME280;5374;42.742;23.266;2022-12-18T12:28:41;96764.66;;;6.67;100.00
10652;BME280;5374;42.742;23.266;2022-12-18T12:31:50;96767.31;;;6.67;100.00
10652;BME280;5374;42.742;23.266;2022-12-18T12:34:52;96771.13;;;6.65;100.00
10652;BME280;5374;42.742;23.266;2022-12-18T12:37:47;96756.69;;;6.61;100.00
10652;BME280;5374;42.742;23.266;2022-12-18T12:40:44;96768.25;;;6.60;100.00
10652;BME280;5374;42.742;23.266;2022-12-18T12:43:37;96765.19;;;6.56;100.00
10652;BME280;5374;42.742;23.266;2022-12-18T12:46:26;96770.63;;;6.48;100.00
10652;BME280;5374;42.742;23.266;2022-12-18T12:49:15;96765.84;;;6.37;100.00
10652;BME280;5374;42.742;23.266;2022-12-18T12:52:08;96773.03;;;6.22;100.00
10652;BME280;5374;42.742;23.266;2022-12-18T12:54:58;96777.94;;;6.25;100.00
10652;BME280;5374;42.742;23.266;2022-12-18T12:57:54;96762.97;;;6.10;100.00
10652;BME280;5374;42.742;23.266;2022-12-18T13:01:01;96776.53;;;6.29;100.00
10652;BME280;5374;42.742;23.266;2022-12-18T13:04:02;96781.50;;;6.17;100.00
10652;BME280;5374;42.742;23.266;2022-12-18T13:06:54;96790.84;;;6.20;100.00
10652;BME280;5374;42.742;23.266;2022-12-18T13:10:14;96784.50;;;6.14;100.00
10652;BME280;5374;42.742;23.266;2022-12-18T13:13:04;96781.19;;;6.05;100.00
10652;BME280;5374;42.742;23.266;2022-12-18T13:16:09;96785.56;;;5.98;100.00
10652;BME280;5374;42.742;23.266;2022-12-18T13:18:57;96799.47;;;6.07;100.00
10652;BME280;5374;42.742;23.266;2022-12-18T13:21:53;96782.31;;;5.96;100.00
10652;BME280;5374;42.742;23.266;2022-12-18T13:24:41;96809.00;;;6.08;100.00
10652;BME280;5374;42.742;23.266;2022-12-18T13:27:59;96778.94;;;6.02;100.00
10652;BME280;5374;42.742;23.266;2022-12-18T13:30:54;96805.97;;;6.11;100.00
10652;BME280;5374;42.742;23.266;2022-12-18T13:33:43;96808.41;;;6.12;100.00
10652;BME280;5374;42.742;23.266;2022-12-18T13:36:33;96812.31;;;6.16;100.00
10652;BME280;5374;42.742;23.266;2022-12-18T13:39:24;96821.50;;;6.21;100.00
10652;BME280;5374;42.742;23.266;2022-12-18T13:42:39;96816.94;;;6.29;100.00
10652;BME280;5374;42.742;23.266;2022-12-18T13:45:48;96821.56;;;6.27;100.00
10652;BME280;5374;42.742;23.266;2022-12-18T13:48:37;96824.03;;;6.29;100.00
10652;BME280;5374;42.742;23.266;2022-12-18T13:51:26;96833.56;;;6.30;100.00
10652;BME280;5374;42.742;23.266;2022-12-18T13:54:18;96833.69;;;6.22;100.00
10652;BME280;5374;42.742;23.266;2022-12-18T13:57:26;96822.56;;;6.05;100.00
10652;BME280;5374;42.742;23.266;2022-12-18T14:00:24;96833.41;;;5.95;100.00
10652;BME280;5374;42.742;23.266;2022-12-18T14:03:18;96834.75;;;6.06;100.00
10652;BME280;5374;42.742;23.266;2022-12-18T14:06:08;96808.13;;;5.86;100.00
10652;BME280;5374;42.742;23.266;2022-12-18T14:08:56;96836.50;;;5.99;100.00
10652;BME280;5374;42.742;23.266;2022-12-18T14:11:46;96843.13;;;5.95;100.00
10652;BME280;5374;42.742;23.266;2022-12-18T14:14:34;96835.03;;;5.96;100.00
10652;BME280;5374;42.742;23.266;2022-12-18T14:17:22;96837.59;;;5.90;100.00
10652;BME280;5374;42.742;23.266;2022-12-18T14:20:13;96847.59;;;5.94;100.00
10652;BME280;5374;42.742;23.266;2022-12-18T14:23:02;96843.50;;;5.92;100.00
10652;BME280;5374;42.742;23.266;2022-12-18T14:25:49;96842.03;;;5.89;100.00
10652;BME280;5374;42.742;23.266;2022-12-18T14:28:43;96840.13;;;5.83;100.00
10652;BME280;5374;42.742;23.266;2022-12-18T14:31:31;96846.41;;;5.82;100.00
10652;BME280;5374;42.742;23.266;2022-12-18T14:34:18;96848.69;;;5.85;100.00
10652;BME280;5374;42.742;23.266;2022-12-18T14:37:09;96847.13;;;5.91;100.00
10652;BME280;5374;42.742;23.266;2022-12-18T14:40:00;96857.03;;;5.89;100.00
10652;BME280;5374;42.742;23.266;2022-12-18T14:42:48;96856.59;;;5.85;100.00
10652;BME280;5374;42.742;23.266;2022-12-18T14:45:36;96851.59;;;5.75;100.00
10652;BME280;5374;42.742;23.266;2022-12-18T14:48:37;96857.41;;;5.71;100.00
10652;BME280;5374;42.742;23.266;2022-12-18T14:51:26;96868.41;;;5.74;100.00
10652;BME280;5374;42.742;23.266;2022-12-18T14:54:16;96869.41;;;5.73;100.00
10652;BME280;5374;42.742;23.266;2022-12-18T14:57:13;96866.69;;;5.67;73.55
10652;BME280;5374;42.742;23.266;2022-12-18T15:00:05;96840.91;;;5.47;72.97
10652;BME280;5374;42.742;23.266;2022-12-18T15:02:54;96869.44;;;5.59;72.68
10652;BME280;5374;42.742;23.266;2022-12-18T15:05:46;96858.25;;;5.57;72.38